Latest  Newer  Older  Last 2 hours slideshow  Last 24 hours slideshow  Refresh every 5 minutes 
Current image  Latest image  Rain/snow radar  Cloud coverage sat images 

All time is UTC (add 2 hours to UTC in wintertime, 3 hours to UTC in DST for Latvia local time)

2018/11/15 07:50 EVRA 150750Z 00000KT 0500 0350 R36/0700N FG FEW002 SCT032 05/05 Q1031 R36/290195 BECMG 0800
2018/11/15 07:50 EVLA 150750Z AUTO 00000KT 9999 FEW004/// OVC033/// 07/07 Q1031
2018/11/15 07:50 EVVA 150750Z AUTO 18004KT 9999 OVC028 07/06 Q1031
2018/11/15 07:50 EYKA 150750Z 03005KT 360V080 9000 OVC004 07/07 Q1031 R08/190095
2018/11/15 07:50 EYPA 150750Z 17003KT 9999 OVC038 07/07 Q1032 R19/1///95
2018/11/15 07:50 EYSA 150750Z 36003KT 1800 0800NE R32R/0900D BR BCFG OVC002 06/06 Q1032 R14L/29//95 AMB TEMPO 0500 FG OVC001 RED
2018/11/15 07:50 EYVI 150750Z 02006KT 9999 SCT004 BKN039 05/05 Q1030 R01/2///95 NOSIG
2018/11/15 07:50 EEKA 150750Z 17005KT 9999 OVC027 08/06 Q1029
2018/11/15 07:50 EEKE 150750Z 20007KT 9999 OVC026 08/06 Q1030
2018/11/15 07:50 EEPU 150750Z 16003KT 120V190 9999 OVC023 07/07 Q1030
2018/11/15 07:50 EETN 150750Z 21006KT 9999 OVC019 07/05 Q1029 R08/290195 NOSIG
2018/11/15 07:50 EETU 150750Z 00000KT 9999 OVC025 06/05 Q1031
   RIGA AIRPORT     EVRA               56 55N  023 58E   10   X     T          6 LV
   LIEPAJA INTL     EVLA        26406  56 31N  021 06E    4   X                8 LV
   VENTPILS         EVVA               57 21N  021 33E    6   X                8 LV
   KAUNAS           EYKA               54 54N  023 55E   77   X     T          6 LT
   PALANGA INTL     EYPA               55 55N  021 03E   10   X                6 LT
   SIAULIAI INTL    EYSA               55 54N  023 24E  135   X     T          6 LT
   VILNIUS INTL     EYVI        26730  54 38N  025 17E  197   X     T          6 LT
   KARDLA           EEKA        26116  58 59N  022 50E    4   X                8 EE
   KURESSAARE       EEKE               58 14N  022 31E    4   X                8 EE
   PARNU            EEPU               58 25N  024 28E   14   X                8 EE
   TALLINN          EETN        26038  59 24N  024 49E   40   X     T          8 EE
   TARTU            EETU               58 19N  026 41E   67   X                8 EE